Terminal Aerodrome Forecast
Issued by NWS Jacksonville, FL

Home | Current Version | Previous Version | Text Only | Print | Product List | Glossary On
Versions: 1 2 3 4 5 6 7 8 9 10 11 12 13 14 15 16
000
FTUS42 KJAX 301929 AAA
TAFJAX
TAF AMD
KJAX 301929Z 3019/3118 29012G18KT P6SM BKN060 BKN200
     FM310300 24005KT P6SM FEW050 BKN250
     FM310800 VRB03KT 5SM BR SCT008
     FM311100 00000KT 3SM BR SCT005
     FM311300 27005KT P6SM FEW010 BKN250=

USA.gov is the U.S. government's official web portal to all federal, state and local government web resources and services.